Aviation Digital Data Service (ADDS)

Output produced by METARs form (1201 UTC 19 January 2019)
found at http://www.aviationweather.gov/metar/data/
 
Forecast for: RJBB (KANSAI INTL , JP)
Text: TAF RJBB 191108Z 1912/2018 17007KT 9999 FEW030
Forecast period: 1200 UTC 19 January 2019 to 0000 UTC 20 January 2019
Forecast type: FROM: standard forecast or significant change
Winds: from the S (170 degrees) at 8 MPH (7 knots; 3.6 m/s)
Visibility: 6 or more miles 10+ km)
Ceiling: at least 12,000 feet AGL
Clouds: few clouds at 3000 feet AGL
Weather: no significant weather forecast for this period
Text: BECMG 2000/2003 28012KT
Forecast period: 0000 to 0600 UTC 20 January 2019
Forecast type: BECOMING: Conditions expected to become as follows by 0300 UTC 20 January 2019
Winds: from the W (280 degrees) at 14 MPH (12 knots; 6.2 m/s)
Visibility: 6 or more miles 10+ km)
Ceiling: at least 12,000 feet AGL
Clouds: few clouds at 3000 feet AGL
Weather: no significant weather forecast for this period
Text: BECMG 2006/2009 30022KT
Forecast period: 0600 to 1800 UTC 20 January 2019
Forecast type: BECOMING: Conditions expected to become as follows by 0900 UTC 20 January 2019
Winds: from the WNW (300 degrees) at 25 MPH (22 knots; 11.3 m/s)
Visibility: 6 or more miles 10+ km)
Ceiling: at least 12,000 feet AGL
Clouds: few clouds at 3000 feet AGL
Weather: no significant weather forecast for this period